createdAt,value
2017-10-04T00:02:25.908Z,91.60
2017-10-04T00:04:53.466Z,91.60
2017-10-04T00:07:21.397Z,91.60
2017-10-04T00:09:48.950Z,91.60
2017-10-04T00:12:16.498Z,91.40
2017-10-04T00:14:44.456Z,91.30
2017-10-04T00:17:11.992Z,91.30
2017-10-04T00:19:39.960Z,91.30
2017-10-04T00:22:07.497Z,91.30
2017-10-04T00:24:35.034Z,91.30
2017-10-04T00:27:02.604Z,91.20
2017-10-04T00:29:30.149Z,91.40
2017-10-04T00:31:57.710Z,91.30
2017-10-04T00:34:25.643Z,91.30
2017-10-04T00:36:53.198Z,91.30
2017-10-04T00:39:20.845Z,91.70
2017-10-04T00:41:48.402Z,91.40
2017-10-04T00:44:15.933Z,91.40
2017-10-04T00:46:43.894Z,91.70
2017-10-04T00:49:11.426Z,91.70
2017-10-04T00:51:38.954Z,91.70
2017-10-04T00:54:06.511Z,91.60
2017-10-04T00:56:34.093Z,91.80
2017-10-04T00:59:01.656Z,92.10
2017-10-04T01:01:29.195Z,92.30
2017-10-04T01:03:56.754Z,92.00
2017-10-04T01:06:24.290Z,92.10
2017-10-04T01:08:51.906Z,91.80
2017-10-04T01:11:19.449Z,92.00
2017-10-04T01:13:46.979Z,92.10
2017-10-04T01:16:14.548Z,92.10
2017-10-04T01:18:42.479Z,91.70
2017-10-04T01:21:10.027Z,91.70
2017-10-04T01:23:37.962Z,92.00
2017-10-04T01:26:05.524Z,92.00
2017-10-04T01:28:33.055Z,92.10
2017-10-04T01:31:00.634Z,92.60
2017-10-04T01:33:28.170Z,92.50
2017-10-04T01:35:55.703Z,92.50
2017-10-04T01:38:23.246Z,92.90
2017-10-04T01:40:51.601Z,93.00
2017-10-04T01:43:19.149Z,93.10
2017-10-04T01:45:46.675Z,93.10
2017-10-04T01:48:14.249Z,93.10
2017-10-04T01:50:41.783Z,93.30
2017-10-04T01:53:09.743Z,93.20
2017-10-04T01:55:37.272Z,93.20
2017-10-04T01:58:04.806Z,93.20
2017-10-04T02:00:32.362Z,93.40
2017-10-04T02:02:59.892Z,93.40
2017-10-04T02:05:27.449Z,93.20
2017-10-04T02:07:54.991Z,93.20
2017-10-04T02:10:22.927Z,93.20
2017-10-04T02:12:50.457Z,93.20
2017-10-04T02:15:18.406Z,93.00
2017-10-04T02:17:45.942Z,92.90
2017-10-04T02:20:13.886Z,93.40
2017-10-04T02:22:41.416Z,93.40
2017-10-04T02:25:09.347Z,93.60
2017-10-04T02:27:36.900Z,93.60
2017-10-04T02:30:04.425Z,93.60
2017-10-04T02:32:31.971Z,93.50
2017-10-04T02:34:59.904Z,93.50
2017-10-04T02:37:27.459Z,93.50
2017-10-04T02:39:54.998Z,93.40
2017-10-04T02:42:22.559Z,93.40
2017-10-04T02:44:50.094Z,93.40
2017-10-04T02:47:18.030Z,93.10
2017-10-04T02:49:45.588Z,93.20
2017-10-04T02:52:13.110Z,93.30
2017-10-04T02:54:40.656Z,93.40
2017-10-04T02:57:08.182Z,93.30
2017-10-04T02:59:35.767Z,93.40
2017-10-04T03:02:03.293Z,93.30
2017-10-04T03:04:31.241Z,93.70
2017-10-04T03:06:58.778Z,93.70
2017-10-04T03:09:26.745Z,93.50
2017-10-04T03:11:54.271Z,93.50
2017-10-04T03:14:21.796Z,93.30
2017-10-04T03:16:49.347Z,93.40
2017-10-04T03:19:16.879Z,93.70
2017-10-04T03:21:44.436Z,93.70
2017-10-04T03:24:11.978Z,93.80
2017-10-04T03:26:39.925Z,93.80
2017-10-04T03:29:07.464Z,93.80
2017-10-04T03:31:35.447Z,93.60
2017-10-04T03:34:02.974Z,93.60
2017-10-04T03:36:30.510Z,93.70
2017-10-04T03:38:58.788Z,93.80
2017-10-04T03:41:26.313Z,93.60
2017-10-04T03:43:54.258Z,93.90
2017-10-04T03:46:21.785Z,93.80
2017-10-04T03:48:49.341Z,93.80
2017-10-04T03:51:16.875Z,93.80
2017-10-04T03:53:44.430Z,93.60
2017-10-04T03:56:11.970Z,93.70
2017-10-04T03:58:39.502Z,93.80
2017-10-04T04:01:07.054Z,93.80
2017-10-04T04:03:34.592Z,93.80
2017-10-04T04:06:02.146Z,93.80
2017-10-04T04:08:29.677Z,94.10
2017-10-04T04:10:57.236Z,94.10
2017-10-04T04:13:25.182Z,93.70
2017-10-04T04:15:52.722Z,93.70
2017-10-04T04:18:20.254Z,93.70
2017-10-04T04:20:47.805Z,93.80
2017-10-04T04:23:15.333Z,93.80
2017-10-04T04:25:42.872Z,93.80
2017-10-04T04:28:10.417Z,93.70
2017-10-04T04:30:37.947Z,93.70
2017-10-04T04:33:05.501Z,93.70
2017-10-04T04:35:33.430Z,93.60
2017-10-04T04:38:12.737Z,93.60
2017-10-04T04:40:40.275Z,93.70
2017-10-04T04:43:07.838Z,93.80
2017-10-04T04:45:36.083Z,94.10
2017-10-04T04:48:03.677Z,94.10
2017-10-04T04:50:31.225Z,94.20
2017-10-04T04:52:58.772Z,94.20
2017-10-04T04:55:26.334Z,94.10
2017-10-04T04:57:53.880Z,94.00
2017-10-04T05:00:21.433Z,93.80
2017-10-04T05:02:48.981Z,93.90
2017-10-04T05:05:16.541Z,94.00
2017-10-04T05:07:44.454Z,94.10
2017-10-04T05:10:12.037Z,94.10
2017-10-04T05:12:39.575Z,94.30
2017-10-04T05:15:07.120Z,94.20
2017-10-04T05:17:34.675Z,94.30
2017-10-04T05:20:02.216Z,94.00
2017-10-04T05:22:29.781Z,93.90
2017-10-04T05:24:57.317Z,93.80
2017-10-04T05:27:24.865Z,93.90
2017-10-04T05:29:52.395Z,93.90
2017-10-04T05:32:19.972Z,93.80
2017-10-04T05:34:47.906Z,93.80
2017-10-04T05:37:15.457Z,93.80
2017-10-04T05:39:43.003Z,93.90
2017-10-04T05:42:10.531Z,93.80
2017-10-04T05:44:38.475Z,93.60
2017-10-04T05:47:06.008Z,93.50
2017-10-04T05:49:33.942Z,93.20
2017-10-04T05:52:01.477Z,93.20
2017-10-04T05:54:29.423Z,93.30
2017-10-04T05:56:56.950Z,93.30
2017-10-04T05:59:24.516Z,93.20
2017-10-04T06:01:52.047Z,93.30
2017-10-04T06:04:19.577Z,93.00
2017-10-04T06:06:47.138Z,92.80
2017-10-04T06:09:14.666Z,92.80
2017-10-04T06:11:42.217Z,93.00
2017-10-04T06:14:09.762Z,92.90
2017-10-04T06:16:37.319Z,92.70
2017-10-04T06:19:04.855Z,92.60
2017-10-04T06:21:32.412Z,92.80
2017-10-04T06:24:00.343Z,92.90
2017-10-04T06:26:27.918Z,92.90
2017-10-04T06:28:55.479Z,92.70
2017-10-04T06:31:23.398Z,92.60
2017-10-04T06:33:50.953Z,92.60
2017-10-04T06:36:18.889Z,92.70
2017-10-04T06:38:46.466Z,92.70
2017-10-04T06:41:14.007Z,92.30
2017-10-04T06:43:41.566Z,92.10
2017-10-04T06:46:09.093Z,92.20
2017-10-04T06:48:37.065Z,92.00
2017-10-04T06:51:08.542Z,92.30
2017-10-04T06:53:36.518Z,91.80
2017-10-04T06:56:04.494Z,91.90
2017-10-04T06:58:32.441Z,91.90
2017-10-04T07:01:00.002Z,91.90
2017-10-04T07:03:27.570Z,91.70
2017-10-04T07:05:55.127Z,91.20
2017-10-04T07:08:22.658Z,91.20
2017-10-04T07:10:50.212Z,91.20
2017-10-04T07:13:17.751Z,91.20
2017-10-04T07:15:45.314Z,90.80
2017-10-04T07:18:12.852Z,90.50
2017-10-04T07:20:40.821Z,90.60
2017-10-04T07:23:08.365Z,90.60
2017-10-04T07:25:35.905Z,90.30
2017-10-04T07:28:03.469Z,90.70
2017-10-04T07:30:31.008Z,90.00
2017-10-04T07:32:58.575Z,90.20
2017-10-04T07:35:26.107Z,90.00
2017-10-04T07:37:53.667Z,89.80
2017-10-04T07:40:21.201Z,89.80
2017-10-04T07:42:48.786Z,89.40
2017-10-04T07:45:16.719Z,89.00
2017-10-04T07:47:44.262Z,89.00
2017-10-04T07:50:11.830Z,89.30
2017-10-04T07:52:39.364Z,89.50
2017-10-04T07:55:07.016Z,89.80
2017-10-04T07:57:34.566Z,89.40
2017-10-04T08:00:02.117Z,89.40
2017-10-04T08:02:30.216Z,89.50
2017-10-04T08:04:58.721Z,88.40
2017-10-04T08:07:26.266Z,88.20
2017-10-04T08:09:53.825Z,87.70
2017-10-04T08:12:21.371Z,87.60
2017-10-04T08:14:49.340Z,87.20
2017-10-04T08:17:16.884Z,87.20
2017-10-04T08:19:44.419Z,87.10
2017-10-04T08:22:11.975Z,86.40
2017-10-04T08:24:39.901Z,86.40
2017-10-04T08:27:07.453Z,86.40
2017-10-04T08:29:34.986Z,86.00
2017-10-04T08:32:02.553Z,86.30
2017-10-04T08:34:30.105Z,85.90
2017-10-04T08:36:57.677Z,85.30
2017-10-04T08:39:25.218Z,85.00
2017-10-04T08:41:52.756Z,85.20
2017-10-04T08:44:20.725Z,84.50
2017-10-04T08:46:48.290Z,84.50
2017-10-04T08:49:15.870Z,84.70
2017-10-04T08:51:43.398Z,83.20
2017-10-04T08:54:10.963Z,83.30
2017-10-04T08:56:38.490Z,82.70
2017-10-04T08:59:06.042Z,82.50
2017-10-04T09:01:33.578Z,82.90
2017-10-04T09:04:01.210Z,83.50
2017-10-04T09:06:29.139Z,83.40
2017-10-04T09:08:56.695Z,83.40
2017-10-04T09:11:24.249Z,83.30
2017-10-04T09:13:51.789Z,83.40
2017-10-04T09:16:19.355Z,83.60
2017-10-04T09:18:46.887Z,82.80
2017-10-04T09:21:14.435Z,83.10
2017-10-04T09:23:42.062Z,82.60
2017-10-04T09:26:09.650Z,82.40
2017-10-04T09:28:37.226Z,82.50
2017-10-04T09:31:04.779Z,83.30
2017-10-04T09:33:32.329Z,82.80
2017-10-04T09:35:59.861Z,83.40
2017-10-04T09:38:27.423Z,82.90
2017-10-04T09:40:55.359Z,82.90
2017-10-04T09:43:22.910Z,82.90
2017-10-04T09:45:50.438Z,82.40
2017-10-04T09:48:17.998Z,82.20
2017-10-04T09:50:45.546Z,81.40
2017-10-04T09:53:13.116Z,82.00
2017-10-04T09:55:40.650Z,81.80
2017-10-04T09:58:08.190Z,80.40
2017-10-04T10:00:35.738Z,81.10
2017-10-04T10:03:03.267Z,81.30
2017-10-04T10:05:30.833Z,80.40
2017-10-04T10:07:58.380Z,80.40
2017-10-04T10:10:25.933Z,80.20
2017-10-04T10:12:53.697Z,80.50
2017-10-04T10:15:21.250Z,80.10
2017-10-04T10:17:48.782Z,80.10
2017-10-04T10:20:16.743Z,79.60
2017-10-04T10:22:44.300Z,79.60
2017-10-04T10:25:11.834Z,79.90
2017-10-04T10:27:39.383Z,80.40
2017-10-04T10:30:06.922Z,80.80
2017-10-04T10:32:34.487Z,80.30
2017-10-04T10:35:02.033Z,80.60
2017-10-04T10:37:29.569Z,79.90
2017-10-04T10:39:57.510Z,78.70
2017-10-04T10:42:25.058Z,78.70
2017-10-04T10:44:52.614Z,78.90
2017-10-04T10:47:20.146Z,79.70
2017-10-04T10:49:47.696Z,80.20
2017-10-04T10:52:15.255Z,78.70
2017-10-04T10:54:42.830Z,78.00
2017-10-04T10:57:10.373Z,79.40
2017-10-04T10:59:37.940Z,78.30
2017-10-04T11:02:05.485Z,78.60
2017-10-04T11:04:33.414Z,78.20
2017-10-04T11:07:00.971Z,78.20
2017-10-04T11:09:28.512Z,78.60
2017-10-04T11:11:56.458Z,78.10
2017-10-04T11:14:23.998Z,78.10
2017-10-04T11:16:51.552Z,78.50
2017-10-04T11:19:19.100Z,78.30
2017-10-04T11:21:47.070Z,77.20
2017-10-04T11:24:14.595Z,77.30
2017-10-04T11:26:42.143Z,77.30
2017-10-04T11:29:09.746Z,77.00
2017-10-04T11:31:37.279Z,76.60
2017-10-04T11:34:05.230Z,77.50
2017-10-04T11:36:32.769Z,77.40
2017-10-04T11:39:00.325Z,76.00
2017-10-04T11:41:27.867Z,75.80
2017-10-04T11:43:55.426Z,74.90
2017-10-04T11:46:22.959Z,74.40
2017-10-04T11:48:50.518Z,74.70
2017-10-04T11:51:18.051Z,72.50
2017-10-04T11:53:46.008Z,74.40
2017-10-04T11:56:13.596Z,74.40
2017-10-04T11:58:41.133Z,73.00
2017-10-04T12:01:08.703Z,72.90
2017-10-04T12:03:36.249Z,73.30
2017-10-04T12:06:03.807Z,73.70
2017-10-04T12:08:31.353Z,73.80
2017-10-04T12:10:59.340Z,73.00
2017-10-04T12:13:27.273Z,73.70
2017-10-04T12:15:54.807Z,73.70
2017-10-04T12:18:22.752Z,73.00
2017-10-04T12:20:50.289Z,73.00
2017-10-04T12:23:17.846Z,72.40
2017-10-04T12:25:45.373Z,73.50
2017-10-04T12:28:12.923Z,71.80
2017-10-04T12:30:40.510Z,71.70
2017-10-04T12:33:08.070Z,72.20
2017-10-04T12:35:35.597Z,72.60
2017-10-04T12:38:03.157Z,73.60
2017-10-04T12:40:30.715Z,73.70
2017-10-04T12:42:58.646Z,73.00
2017-10-04T12:45:26.202Z,73.00
2017-10-04T12:47:53.740Z,73.40
2017-10-04T12:50:21.706Z,72.70
2017-10-04T12:52:49.238Z,72.60
2017-10-04T12:55:16.785Z,71.10
2017-10-04T12:57:44.315Z,70.90
2017-10-04T13:00:11.881Z,71.10
2017-10-04T13:02:39.411Z,71.30
2017-10-04T13:05:06.945Z,70.70
2017-10-04T13:07:34.889Z,69.90
2017-10-04T13:10:02.410Z,69.90
2017-10-04T13:12:29.957Z,70.40
2017-10-04T13:14:57.484Z,71.00
2017-10-04T13:17:25.028Z,70.70
2017-10-04T13:19:52.949Z,72.50
2017-10-04T13:22:20.498Z,72.50
2017-10-04T13:24:48.029Z,72.00
2017-10-04T13:27:15.614Z,72.10
2017-10-04T13:29:43.550Z,71.60
2017-10-04T13:32:11.083Z,71.60
2017-10-04T13:34:38.630Z,71.70
2017-10-04T13:37:06.560Z,72.30
2017-10-04T13:39:34.114Z,72.40
2017-10-04T13:42:01.648Z,71.60
2017-10-04T13:44:29.208Z,72.10
2017-10-04T13:46:56.739Z,71.70
2017-10-04T13:49:24.305Z,72.30
2017-10-04T13:51:51.837Z,72.80
2017-10-04T13:54:19.368Z,72.80
2017-10-04T13:56:46.931Z,73.80
2017-10-04T13:59:14.461Z,74.00
2017-10-04T14:01:42.899Z,73.60
2017-10-04T14:04:10.425Z,73.60
2017-10-04T14:06:37.978Z,73.10
2017-10-04T14:09:05.514Z,73.10
2017-10-04T14:11:33.061Z,72.70
2017-10-04T14:14:00.586Z,72.70
2017-10-04T14:16:28.188Z,71.40
2017-10-04T14:18:55.731Z,72.30
2017-10-04T14:21:23.303Z,72.10
2017-10-04T14:23:50.865Z,73.10
2017-10-04T14:29:14.541Z,71.70
2017-10-04T14:31:42.082Z,72.00
2017-10-04T14:34:10.058Z,72.70
2017-10-04T14:36:37.596Z,72.70
2017-10-04T14:39:05.161Z,72.10
2017-10-04T14:41:32.704Z,72.30
2017-10-04T14:44:00.258Z,72.30
2017-10-04T14:46:28.194Z,72.40
2017-10-04T14:48:59.112Z,72.30
2017-10-04T14:51:27.054Z,72.90
2017-10-04T14:53:54.607Z,72.90
2017-10-04T14:56:22.151Z,71.80
2017-10-04T14:58:49.686Z,72.10
2017-10-04T15:01:17.229Z,71.60
2017-10-04T15:03:44.769Z,71.90
2017-10-04T15:06:15.991Z,72.60
2017-10-04T15:11:46.599Z,72.00
2017-10-04T15:14:14.150Z,72.20
2017-10-04T15:16:47.062Z,72.50
2017-10-04T15:21:59.622Z,73.20
2017-10-04T15:24:27.571Z,73.00
2017-10-04T15:26:55.181Z,73.20
2017-10-04T15:29:22.719Z,73.30
2017-10-04T15:31:51.147Z,73.40
2017-10-04T15:34:31.666Z,73.80
2017-10-04T15:36:59.197Z,73.70
2017-10-04T15:39:26.829Z,73.90
2017-10-04T15:41:54.410Z,74.40
2017-10-04T15:44:21.970Z,74.40
2017-10-04T15:46:49.566Z,74.90
2017-10-04T15:49:17.146Z,74.90
2017-10-04T15:51:44.682Z,74.90
2017-10-04T15:54:12.221Z,75.50
2017-10-04T15:56:39.801Z,75.00
2017-10-04T15:59:07.379Z,76.00
2017-10-04T16:01:35.031Z,76.10
2017-10-04T16:04:02.631Z,75.30
2017-10-04T16:06:30.549Z,75.10
2017-10-04T16:08:58.211Z,75.10
2017-10-04T16:11:25.801Z,75.60
2017-10-04T16:13:54.574Z,75.80
2017-10-04T16:16:22.162Z,75.60
2017-10-04T16:18:51.009Z,75.70
2017-10-04T16:21:18.533Z,75.70
2017-10-04T16:23:46.511Z,75.50
2017-10-04T16:26:14.061Z,75.70
2017-10-04T16:28:42.041Z,76.10
2017-10-04T16:31:09.604Z,76.10
2017-10-04T16:33:37.938Z,76.20
2017-10-04T16:36:06.358Z,76.70
2017-10-04T16:38:34.729Z,76.30
2017-10-04T16:41:02.690Z,76.70
2017-10-04T16:43:31.524Z,76.70
2017-10-04T16:45:59.200Z,77.20
2017-10-04T16:48:28.584Z,76.90
2017-10-04T16:50:56.180Z,77.10
2017-10-04T16:53:23.703Z,77.00
2017-10-04T16:55:53.975Z,77.20
2017-10-04T16:58:22.979Z,77.30
2017-10-04T17:00:50.938Z,77.40
2017-10-04T17:03:18.497Z,77.40
2017-10-04T17:05:46.051Z,77.20
2017-10-04T17:08:14.021Z,77.60
2017-10-04T17:10:41.627Z,77.60
2017-10-04T17:13:09.621Z,78.00
2017-10-04T17:15:37.632Z,77.90
2017-10-04T17:18:05.232Z,77.90
2017-10-04T17:20:32.811Z,77.60
2017-10-04T17:23:00.351Z,77.90
2017-10-04T17:25:27.908Z,77.80
2017-10-04T17:27:56.042Z,78.00
2017-10-04T17:30:23.944Z,78.20
2017-10-04T17:32:51.799Z,78.10
2017-10-04T17:35:19.327Z,77.80
2017-10-04T17:37:48.196Z,77.90
2017-10-04T17:40:15.755Z,77.80
2017-10-04T17:42:43.577Z,78.10
2017-10-04T17:45:11.081Z,78.30
2017-10-04T17:47:38.612Z,78.20
2017-10-04T17:50:06.107Z,78.00
2017-10-04T17:52:33.635Z,78.10
2017-10-04T17:55:01.151Z,78.30
2017-10-04T17:57:28.753Z,77.90
2017-10-04T17:59:57.239Z,77.90
2017-10-04T18:02:24.759Z,78.10
2017-10-04T18:04:52.366Z,78.10
2017-10-04T18:07:20.354Z,77.70
2017-10-04T18:09:47.874Z,77.70
2017-10-04T18:12:15.426Z,77.70
2017-10-04T18:14:43.465Z,78.20
2017-10-04T18:17:11.000Z,78.20
2017-10-04T18:19:39.218Z,78.00
2017-10-04T18:22:07.178Z,78.00
2017-10-04T18:24:34.752Z,78.00
2017-10-04T18:27:02.362Z,78.20
2017-10-04T18:29:29.877Z,78.00
2017-10-04T18:31:57.799Z,78.10
2017-10-04T18:34:25.337Z,78.10
2017-10-04T18:36:52.889Z,78.10
2017-10-04T18:39:20.430Z,77.80
2017-10-04T18:41:47.965Z,78.00
2017-10-04T18:44:15.539Z,78.10
2017-10-04T18:46:43.130Z,77.90
2017-10-04T18:49:10.706Z,77.90
2017-10-04T18:51:38.293Z,77.70
2017-10-04T18:54:05.970Z,78.00
2017-10-04T18:56:34.792Z,77.70
2017-10-04T18:59:03.310Z,77.50
2017-10-04T19:01:31.285Z,78.20
2017-10-04T19:03:58.783Z,78.20
2017-10-04T19:06:26.344Z,78.00
2017-10-04T19:08:53.921Z,78.00
2017-10-04T19:11:22.317Z,78.50
2017-10-04T19:13:50.565Z,78.40
2017-10-04T19:16:18.134Z,78.10
2017-10-04T19:18:45.719Z,78.60
2017-10-04T19:21:13.654Z,78.50
2017-10-04T19:23:41.190Z,78.50
2017-10-04T19:26:08.714Z,78.50
2017-10-04T19:28:36.284Z,78.70
2017-10-04T19:31:03.821Z,78.80
2017-10-04T19:33:31.347Z,78.90
2017-10-04T19:35:59.286Z,79.00
2017-10-04T19:38:26.805Z,79.00
2017-10-04T19:40:54.382Z,79.00
2017-10-04T19:43:21.911Z,79.00
2017-10-04T19:45:49.460Z,79.10
2017-10-04T19:48:16.990Z,79.10
2017-10-04T19:50:44.559Z,79.20
2017-10-04T19:53:12.087Z,79.50
2017-10-04T19:55:39.630Z,79.50
2017-10-04T19:58:07.194Z,79.50
2017-10-04T20:00:35.212Z,79.40
2017-10-04T20:03:02.755Z,79.40
2017-10-04T20:05:30.294Z,79.60
2017-10-04T20:07:57.866Z,80.00
2017-10-04T20:10:25.421Z,80.00
2017-10-04T20:12:53.448Z,79.90
2017-10-04T20:15:20.977Z,79.90
2017-10-04T20:17:48.524Z,79.90
2017-10-04T20:20:16.058Z,79.90
2017-10-04T20:22:43.582Z,79.90
2017-10-04T20:25:11.135Z,79.80
2017-10-04T20:27:38.649Z,80.00
2017-10-04T20:30:06.202Z,80.00
2017-10-04T20:32:34.635Z,79.80
2017-10-04T20:35:02.202Z,79.90
2017-10-04T20:37:29.746Z,79.90
2017-10-04T20:39:57.283Z,79.90
2017-10-04T20:42:24.835Z,79.50
2017-10-04T20:44:52.386Z,79.50
2017-10-04T20:47:19.939Z,79.70
2017-10-04T20:49:47.468Z,79.60
2017-10-04T20:52:15.008Z,79.70
2017-10-04T20:54:42.524Z,79.50
2017-10-04T20:57:10.098Z,79.30
2017-10-04T20:59:37.628Z,79.20
2017-10-04T21:02:05.152Z,79.00
2017-10-04T21:04:32.696Z,79.00
2017-10-04T21:07:00.218Z,78.60
2017-10-04T21:09:27.772Z,79.10
2017-10-04T21:11:55.300Z,78.80
2017-10-04T21:14:22.860Z,79.00
2017-10-04T21:16:50.770Z,78.60
2017-10-04T21:19:18.307Z,78.60
2017-10-04T21:21:45.841Z,78.50
2017-10-04T21:24:13.374Z,78.30
2017-10-04T21:26:40.919Z,78.60
2017-10-04T21:29:08.441Z,78.70
2017-10-04T21:31:35.978Z,78.90
2017-10-04T21:34:03.522Z,78.80
2017-10-04T21:36:31.483Z,78.60
2017-10-04T21:38:59.011Z,78.50
2017-10-04T21:41:26.525Z,78.30
2017-10-04T21:43:54.074Z,78.60
2017-10-04T21:46:21.611Z,78.80
2017-10-04T21:48:49.150Z,78.30
2017-10-04T21:51:16.665Z,78.40
2017-10-04T21:53:44.209Z,78.80
2017-10-04T21:56:11.742Z,78.60
2017-10-04T21:58:39.300Z,78.80
2017-10-04T22:01:07.218Z,79.50
2017-10-04T22:03:34.756Z,79.50
2017-10-04T22:06:02.696Z,79.40
2017-10-04T22:08:30.239Z,79.40
2017-10-04T22:10:58.174Z,79.80
2017-10-04T22:13:25.707Z,79.80
2017-10-04T22:15:53.252Z,80.20
2017-10-04T22:18:20.779Z,79.70
2017-10-04T22:20:48.731Z,80.30
2017-10-04T22:23:16.258Z,80.30
2017-10-04T22:25:43.784Z,80.40
2017-10-04T22:28:11.328Z,80.80
2017-10-04T22:30:39.245Z,81.10
2017-10-04T22:33:06.786Z,81.10
2017-10-04T22:35:34.323Z,80.50
2017-10-04T22:38:01.872Z,80.70
2017-10-04T22:40:29.791Z,80.70
2017-10-04T22:42:57.354Z,80.70
2017-10-04T22:45:25.273Z,80.90
2017-10-04T22:47:52.797Z,80.90
2017-10-04T22:50:20.337Z,80.80
2017-10-04T22:52:47.863Z,80.60
2017-10-04T22:55:15.410Z,81.00
2017-10-04T22:57:42.932Z,80.90
2017-10-04T23:00:11.567Z,80.90
2017-10-04T23:02:39.493Z,80.90
2017-10-04T23:05:07.053Z,80.90
2017-10-04T23:07:34.971Z,81.70
2017-10-04T23:10:02.495Z,81.70
2017-10-04T23:12:30.043Z,82.50
2017-10-04T23:14:57.575Z,82.00
2017-10-04T23:17:25.120Z,82.10
2017-10-04T23:19:52.660Z,82.40
2017-10-04T23:22:20.619Z,82.10
2017-10-04T23:24:48.155Z,82.10
2017-10-04T23:27:15.674Z,81.60
2017-10-04T23:29:43.219Z,81.90
2017-10-04T23:32:10.734Z,82.10
2017-10-04T23:34:38.285Z,81.80
2017-10-04T23:37:05.806Z,82.20
2017-10-04T23:39:33.378Z,81.80
2017-10-04T23:42:00.907Z,82.10
2017-10-04T23:44:28.436Z,82.20
2017-10-04T23:46:55.977Z,81.70
2017-10-04T23:49:23.899Z,81.30
2017-10-04T23:51:51.451Z,81.30
2017-10-04T23:54:18.988Z,81.00
2017-10-04T23:56:46.525Z,81.20
2017-10-04T23:59:14.045Z,80.90
